createdAt,value
2019-02-05T00:01:25.015Z,14.60
2019-02-05T00:03:53.201Z,16.07
2019-02-05T00:06:21.871Z,16.13
2019-02-05T00:08:49.756Z,18.00
2019-02-05T00:11:18.028Z,17.42
2019-02-05T00:13:45.475Z,15.70
2019-02-05T00:16:13.541Z,16.03
2019-02-05T00:18:41.628Z,16.27
2019-02-05T00:21:09.845Z,18.20
2019-02-05T00:23:37.802Z,17.13
2019-02-05T00:26:06.701Z,18.57
2019-02-05T00:28:34.218Z,17.73
2019-02-05T00:31:02.290Z,18.03
2019-02-05T00:33:30.907Z,18.17
2019-02-05T00:35:59.021Z,18.02
2019-02-05T00:38:27.102Z,20.77
2019-02-05T00:40:55.170Z,19.58
2019-02-05T00:43:23.296Z,20.12
2019-02-05T00:45:51.432Z,19.33
2019-02-05T00:48:19.631Z,21.70
2019-02-05T00:50:47.888Z,19.47
2019-02-05T00:53:16.403Z,18.87
2019-02-05T00:55:44.699Z,21.80
2019-02-05T00:58:12.936Z,21.20
2019-02-05T01:00:40.966Z,21.63
2019-02-05T01:03:09.045Z,23.87
2019-02-05T01:05:37.103Z,19.45
2019-02-05T01:08:05.825Z,19.63
2019-02-05T01:10:33.676Z,19.10
2019-02-05T01:13:02.259Z,16.58
2019-02-05T01:15:30.434Z,17.70
2019-02-05T01:17:58.809Z,18.97
2019-02-05T01:20:27.547Z,26.15
2019-02-05T01:22:56.923Z,22.50
2019-02-05T01:25:25.560Z,18.65
2019-02-05T01:27:53.690Z,21.00
2019-02-05T01:30:22.791Z,19.37
2019-02-05T01:32:50.617Z,19.05
2019-02-05T01:35:18.700Z,18.98
2019-02-05T01:37:47.389Z,21.80
2019-02-05T01:40:16.457Z,22.55
2019-02-05T01:42:44.644Z,24.02
2019-02-05T01:45:14.030Z,21.33
2019-02-05T01:47:42.241Z,21.55
2019-02-05T01:50:10.941Z,24.15
2019-02-05T01:52:38.764Z,23.27
2019-02-05T01:55:07.103Z,23.20
2019-02-05T01:57:35.210Z,22.60
2019-02-05T02:00:02.980Z,25.23
2019-02-05T02:02:30.840Z,25.02
2019-02-05T02:04:58.909Z,25.33
2019-02-05T02:07:26.973Z,25.02
2019-02-05T02:09:55.902Z,24.85
2019-02-05T02:12:23.933Z,26.25
2019-02-05T02:14:52.029Z,26.97
2019-02-05T02:17:20.528Z,26.03
2019-02-05T02:19:48.558Z,26.25
2019-02-05T02:22:16.746Z,25.25
2019-02-05T02:24:44.908Z,27.80
2019-02-05T02:27:12.901Z,24.57
2019-02-05T02:29:41.235Z,30.23
2019-02-05T02:32:09.419Z,29.40
2019-02-05T02:34:37.411Z,28.65
2019-02-05T02:37:05.493Z,31.20
2019-02-05T02:39:33.342Z,35.55
2019-02-05T02:42:01.518Z,30.30
2019-02-05T02:44:29.711Z,28.23
2019-02-05T02:46:58.968Z,30.30
2019-02-05T02:49:26.954Z,33.13
2019-02-05T02:51:55.215Z,32.72
2019-02-05T02:54:23.985Z,36.88
2019-02-05T02:57:04.345Z,34.42
2019-02-05T02:59:20.715Z,33.67
2019-02-05T03:01:49.178Z,34.47
2019-02-05T03:04:17.220Z,36.17
2019-02-05T03:06:45.498Z,36.38
2019-02-05T03:09:13.858Z,40.63
2019-02-05T03:11:42.079Z,38.40
2019-02-05T03:14:10.035Z,40.63
2019-02-05T03:16:38.652Z,40.80
2019-02-05T03:19:06.836Z,40.83
2019-02-05T03:21:34.744Z,44.05
2019-02-05T03:24:03.984Z,45.20
2019-02-05T03:26:32.682Z,41.35
2019-02-05T03:29:00.817Z,44.45
2019-02-05T03:31:28.905Z,41.95
2019-02-05T03:33:57.034Z,39.85
2019-02-05T03:36:25.171Z,46.83
2019-02-05T03:38:53.408Z,45.55
2019-02-05T03:41:21.457Z,41.95
2019-02-05T03:43:49.248Z,42.78
2019-02-05T03:46:17.403Z,51.63
2019-02-05T03:48:46.492Z,46.20
2019-02-05T03:51:33.079Z,41.70
2019-02-05T03:54:04.620Z,42.08
2019-02-05T03:56:40.525Z,47.70
2019-02-05T03:59:19.817Z,43.05
2019-02-05T04:02:13.668Z,44.30
2019-02-05T04:05:07.191Z,46.33
2019-02-05T04:07:57.888Z,49.53
2019-02-05T04:10:45.105Z,48.50
2019-02-05T04:13:32.658Z,53.87
2019-02-05T04:16:23.058Z,47.67
2019-02-05T04:19:09.350Z,49.85
2019-02-05T04:21:49.677Z,49.35
2019-02-05T04:24:36.901Z,51.42
2019-02-05T04:27:45.046Z,52.58
2019-02-05T04:30:33.278Z,58.35
2019-02-05T04:33:20.495Z,46.63
2019-02-05T04:36:16.729Z,52.28
2019-02-05T04:38:51.412Z,49.53
2019-02-05T04:41:51.339Z,62.88
2019-02-05T04:44:33.676Z,49.47
2019-02-05T04:47:05.140Z,56.90
2019-02-05T04:49:53.593Z,50.42
2019-02-05T04:52:45.417Z,56.58
2019-02-05T04:55:34.653Z,50.70
2019-02-05T04:58:14.967Z,51.05
2019-02-05T05:00:59.552Z,52.55
2019-02-05T05:03:34.499Z,62.13
2019-02-05T05:06:40.150Z,64.03
2019-02-05T05:09:14.491Z,52.60
2019-02-05T05:11:42.571Z,60.00
2019-02-05T05:14:10.926Z,71.22
2019-02-05T05:16:38.815Z,59.72
2019-02-05T05:19:07.387Z,64.00
2019-02-05T05:21:35.431Z,54.08
2019-02-05T05:24:04.236Z,58.35
2019-02-05T05:26:32.009Z,59.63
2019-02-05T05:29:00.160Z,65.65
2019-02-05T05:31:28.341Z,53.92
2019-02-05T05:33:56.464Z,54.38
2019-02-05T05:36:24.690Z,60.00
2019-02-05T05:38:52.992Z,60.60
2019-02-05T05:41:20.445Z,64.32
2019-02-05T05:43:48.504Z,64.13
2019-02-05T05:46:16.884Z,63.70
2019-02-05T05:48:44.670Z,66.37
2019-02-05T05:51:12.835Z,63.63
2019-02-05T05:53:40.992Z,61.05
2019-02-05T05:56:09.151Z,61.15
2019-02-05T05:58:37.247Z,52.50
2019-02-05T06:01:05.602Z,59.37
2019-02-05T06:03:33.678Z,52.08
2019-02-05T06:06:01.436Z,50.17
2019-02-05T06:08:29.525Z,64.80
2019-02-05T06:10:58.091Z,68.20
2019-02-05T06:13:26.183Z,58.87
2019-02-05T06:15:54.605Z,67.72
2019-02-05T06:18:22.468Z,69.28
2019-02-05T06:20:50.281Z,58.22
2019-02-05T06:23:18.604Z,52.15
2019-02-05T06:25:46.707Z,67.43
2019-02-05T06:28:14.787Z,68.22
2019-02-05T06:30:42.777Z,69.43
2019-02-05T06:33:10.229Z,67.22
2019-02-05T06:35:38.738Z,72.22
2019-02-05T06:38:06.762Z,70.85
2019-02-05T06:40:34.834Z,74.22
2019-02-05T06:43:03.022Z,76.05
2019-02-05T06:45:31.489Z,72.93
2019-02-05T06:47:59.555Z,72.80
2019-02-05T06:50:27.618Z,73.90
2019-02-05T06:52:56.310Z,59.78
2019-02-05T06:55:24.368Z,65.75
2019-02-05T06:57:52.167Z,71.62
2019-02-05T07:00:21.438Z,61.10
2019-02-05T07:02:49.525Z,69.18
2019-02-05T07:05:17.421Z,68.10
2019-02-05T07:07:45.530Z,65.75
2019-02-05T07:10:14.763Z,58.35
2019-02-05T07:12:42.606Z,70.37
2019-02-05T07:15:11.328Z,71.32
2019-02-05T07:17:49.372Z,61.13
2019-02-05T07:20:08.398Z,69.45
2019-02-05T07:22:36.894Z,79.78
2019-02-05T07:25:05.470Z,72.35
2019-02-05T07:27:33.667Z,68.05
2019-02-05T07:30:02.189Z,69.70
2019-02-05T07:32:30.119Z,79.03
2019-02-05T07:34:58.295Z,68.75
2019-02-05T07:37:26.611Z,68.28
2019-02-05T07:39:54.411Z,65.90
2019-02-05T07:42:22.553Z,66.95
2019-02-05T07:44:51.264Z,74.90
2019-02-05T07:47:19.097Z,73.12
2019-02-05T07:49:47.034Z,68.12
2019-02-05T07:52:15.284Z,60.17
2019-02-05T07:54:43.246Z,74.40
2019-02-05T07:57:11.068Z,75.25
2019-02-05T07:59:39.222Z,62.40
2019-02-05T08:02:07.416Z,71.90
2019-02-05T08:04:35.644Z,74.25
2019-02-05T08:07:03.805Z,74.87
2019-02-05T08:09:32.027Z,67.65
2019-02-05T08:11:59.964Z,68.50
2019-02-05T08:14:28.181Z,63.83
2019-02-05T08:16:56.355Z,58.42
2019-02-05T08:19:25.353Z,69.57
2019-02-05T08:21:53.252Z,69.30
2019-02-05T08:24:21.375Z,75.80
2019-02-05T08:26:49.585Z,69.32
2019-02-05T08:29:21.647Z,74.90
2019-02-05T08:31:45.676Z,74.40
2019-02-05T08:34:13.858Z,72.68
2019-02-05T08:36:41.777Z,75.07
2019-02-05T08:39:10.091Z,70.05
2019-02-05T08:41:38.291Z,64.78
2019-02-05T08:44:06.539Z,70.10
2019-02-05T08:46:34.624Z,62.38
2019-02-05T08:49:02.797Z,66.05
2019-02-05T08:51:31.132Z,67.80
2019-02-05T08:53:59.130Z,81.75
2019-02-05T08:56:27.319Z,63.22
2019-02-05T08:58:55.575Z,68.32
2019-02-05T09:01:23.619Z,68.55
2019-02-05T09:03:51.790Z,67.30
2019-02-05T09:06:19.691Z,72.53
2019-02-05T09:08:47.651Z,59.78
2019-02-05T09:11:15.899Z,59.97
2019-02-05T09:13:44.651Z,57.72
2019-02-05T09:16:12.888Z,67.93
2019-02-05T09:18:41.078Z,55.38
2019-02-05T09:21:09.420Z,59.03
2019-02-05T09:23:37.509Z,66.18
2019-02-05T09:26:05.676Z,57.47
2019-02-05T09:28:33.894Z,57.85
2019-02-05T09:31:02.079Z,65.00
2019-02-05T09:33:30.278Z,57.30
2019-02-05T09:35:58.436Z,65.07
2019-02-05T09:38:26.606Z,53.55
2019-02-05T09:40:54.243Z,58.08
2019-02-05T09:43:22.425Z,53.60
2019-02-05T09:45:50.684Z,49.10
2019-02-05T09:48:19.120Z,55.03
2019-02-05T09:50:47.553Z,53.75
2019-02-05T09:53:15.697Z,45.85
2019-02-05T09:55:43.897Z,53.38
2019-02-05T09:58:12.625Z,55.12
2019-02-05T10:00:41.013Z,53.47
2019-02-05T10:03:08.942Z,47.90
2019-02-05T10:05:37.177Z,52.30
2019-02-05T10:08:05.583Z,48.40
2019-02-05T10:10:33.793Z,48.38
2019-02-05T10:13:01.949Z,45.53
2019-02-05T10:15:31.278Z,49.28
2019-02-05T10:17:59.242Z,46.00
2019-02-05T10:20:27.926Z,44.53
2019-02-05T10:22:57.529Z,44.80
2019-02-05T10:25:25.694Z,49.50
2019-02-05T10:27:54.363Z,47.70
2019-02-05T10:30:26.765Z,49.40
2019-02-05T10:32:54.995Z,46.63
2019-02-05T10:35:23.155Z,49.85
2019-02-05T10:37:51.494Z,41.65
2019-02-05T10:40:19.825Z,40.72
2019-02-05T10:42:47.743Z,50.42
2019-02-05T10:45:16.069Z,42.75
2019-02-05T10:47:44.668Z,46.70
2019-02-05T10:50:13.475Z,46.20
2019-02-05T10:52:41.380Z,49.42
2019-02-05T10:55:10.281Z,47.55
2019-02-05T10:57:39.111Z,49.53
2019-02-05T11:00:09.298Z,43.28
2019-02-05T11:02:36.223Z,42.03
2019-02-05T11:05:04.504Z,42.78
2019-02-05T11:07:32.687Z,42.38
2019-02-05T11:10:00.906Z,42.38
2019-02-05T11:12:29.342Z,37.60
2019-02-05T11:14:57.231Z,38.70
2019-02-05T11:17:25.361Z,45.10
2019-02-05T11:19:54.065Z,43.97
2019-02-05T11:22:22.223Z,35.63
2019-02-05T11:24:50.506Z,39.20
2019-02-05T11:27:18.722Z,38.67
2019-02-05T11:29:46.871Z,40.90
2019-02-05T11:32:15.034Z,39.97
2019-02-05T11:34:42.863Z,34.58
2019-02-05T11:37:10.985Z,33.83
2019-02-05T11:39:39.214Z,36.60
2019-02-05T11:42:07.346Z,38.03
2019-02-05T11:44:35.294Z,33.80
2019-02-05T11:47:04.270Z,37.15
2019-02-05T11:49:32.307Z,39.80
2019-02-05T11:52:00.177Z,37.15
2019-02-05T11:54:28.405Z,37.25
2019-02-05T11:56:56.424Z,34.10
2019-02-05T11:59:24.722Z,32.70
2019-02-05T12:01:52.700Z,32.38
2019-02-05T12:04:20.633Z,36.15
2019-02-05T12:06:48.511Z,38.25
2019-02-05T12:09:26.404Z,41.37
2019-02-05T12:11:54.593Z,37.13
2019-02-05T12:14:22.780Z,38.83
2019-02-05T12:16:51.020Z,39.47
2019-02-05T12:19:19.642Z,44.25
2019-02-05T12:21:47.751Z,39.50
2019-02-05T12:24:15.598Z,44.30
2019-02-05T12:26:44.353Z,41.58
2019-02-05T12:29:12.604Z,43.40
2019-02-05T12:31:41.798Z,36.00
2019-02-05T12:34:09.673Z,39.47
2019-02-05T12:36:37.909Z,39.97
2019-02-05T12:39:09.335Z,42.75
2019-02-05T12:41:37.515Z,44.90
2019-02-05T12:44:05.714Z,42.28
2019-02-05T12:46:33.642Z,44.13
2019-02-05T12:49:01.868Z,43.33
2019-02-05T12:51:29.910Z,47.72
2019-02-05T12:53:58.296Z,42.75
2019-02-05T12:56:26.451Z,57.03
2019-02-05T12:58:54.613Z,48.40
2019-02-05T13:01:23.358Z,51.13
2019-02-05T13:03:51.563Z,52.55
2019-02-05T13:06:19.467Z,58.05
2019-02-05T13:08:47.938Z,56.55
2019-02-05T13:11:15.881Z,50.38
2019-02-05T13:13:44.133Z,65.93
2019-02-05T13:16:12.813Z,54.95
2019-02-05T13:18:41.108Z,54.63
2019-02-05T13:21:09.091Z,56.37
2019-02-05T13:23:36.648Z,59.65
2019-02-05T13:26:04.676Z,60.15
2019-02-05T13:28:33.953Z,55.90
2019-02-05T13:31:08.014Z,60.28
2019-02-05T13:33:30.369Z,58.05
2019-02-05T13:35:58.406Z,73.95
2019-02-05T13:38:26.547Z,56.47
2019-02-05T13:40:54.682Z,66.70
2019-02-05T13:43:23.609Z,64.50
2019-02-05T13:45:51.508Z,56.47
2019-02-05T13:48:19.476Z,64.53
2019-02-05T13:50:47.591Z,63.70
2019-02-05T13:53:16.056Z,65.30
2019-02-05T13:55:44.655Z,68.47
2019-02-05T13:58:13.242Z,73.43
2019-02-05T14:00:45.941Z,74.80
2019-02-05T14:03:13.787Z,71.55
2019-02-05T14:05:41.971Z,68.57
2019-02-05T14:08:10.661Z,74.22
2019-02-05T14:10:39.051Z,69.15
2019-02-05T14:13:07.155Z,58.95
2019-02-05T14:15:36.480Z,70.60
2019-02-05T14:18:04.814Z,67.90
2019-02-05T14:20:32.702Z,66.85
2019-02-05T14:23:01.382Z,61.55
2019-02-05T14:25:29.250Z,64.65
2019-02-05T14:27:57.221Z,62.45
2019-02-05T14:30:30.133Z,73.28
2019-02-05T14:32:58.371Z,69.85
2019-02-05T14:35:26.278Z,68.50
2019-02-05T14:37:54.178Z,65.25
2019-02-05T14:40:22.325Z,61.20
2019-02-05T14:42:50.627Z,61.85
2019-02-05T14:45:18.873Z,70.68
2019-02-05T14:47:46.798Z,68.45
2019-02-05T14:50:16.911Z,66.07
2019-02-05T14:52:44.786Z,66.70
2019-02-05T14:55:12.880Z,75.85
2019-02-05T14:57:41.050Z,67.90
2019-02-05T15:00:11.112Z,72.75
2019-02-05T15:02:39.019Z,66.05
2019-02-05T15:05:07.105Z,65.95
2019-02-05T15:07:35.463Z,68.22
2019-02-05T15:10:03.514Z,72.28
2019-02-05T15:12:31.641Z,62.58
2019-02-05T15:14:59.808Z,64.47
2019-02-05T15:17:28.021Z,72.90
2019-02-05T15:19:56.263Z,61.50
2019-02-05T15:22:24.895Z,60.90
2019-02-05T15:24:52.749Z,80.60
2019-02-05T15:27:20.687Z,66.20
2019-02-05T15:29:49.658Z,60.88
2019-02-05T15:32:36.748Z,68.45
2019-02-05T15:35:04.913Z,66.65
2019-02-05T15:37:33.072Z,60.33
2019-02-05T15:40:01.214Z,71.68
2019-02-05T15:42:30.016Z,59.65
2019-02-05T15:44:58.131Z,56.17
2019-02-05T15:47:26.226Z,61.83
2019-02-05T15:50:05.658Z,62.88
2019-02-05T15:52:22.888Z,65.37
2019-02-05T15:54:50.452Z,69.55
2019-02-05T15:57:18.634Z,63.50
2019-02-05T15:59:46.804Z,60.75
2019-02-05T16:02:15.005Z,53.90
2019-02-05T16:04:42.931Z,56.20
2019-02-05T16:07:11.148Z,62.33
2019-02-05T16:09:39.326Z,60.10
2019-02-05T16:12:07.247Z,54.53
2019-02-05T16:14:35.447Z,48.00
2019-02-05T16:17:04.246Z,55.75
2019-02-05T16:19:32.408Z,50.60
2019-02-05T16:22:00.319Z,54.90
2019-02-05T16:24:29.058Z,54.65
2019-02-05T16:26:57.486Z,87.55
2019-02-05T16:29:25.367Z,42.42
2019-02-05T16:31:53.565Z,43.53
2019-02-05T16:34:22.487Z,41.72
2019-02-05T16:36:50.722Z,39.40
2019-02-05T16:39:18.867Z,45.05
2019-02-05T16:41:47.038Z,39.17
2019-02-05T16:44:15.137Z,41.85
2019-02-05T16:46:43.313Z,37.50
2019-02-05T16:49:11.966Z,40.33
2019-02-05T16:51:40.116Z,35.80
2019-02-05T16:54:08.276Z,35.47
2019-02-05T16:56:36.183Z,41.42
2019-02-05T16:59:04.607Z,39.67
2019-02-05T17:01:32.764Z,37.40
2019-02-05T17:04:01.517Z,37.38
2019-02-05T17:06:29.622Z,35.88
2019-02-05T17:08:57.830Z,36.42
2019-02-05T17:11:26.937Z,36.60
2019-02-05T17:13:54.968Z,34.05
2019-02-05T17:16:22.835Z,36.70
2019-02-05T17:18:51.287Z,34.60
2019-02-05T17:21:19.494Z,28.38
2019-02-05T17:23:47.683Z,30.30
2019-02-05T17:26:15.594Z,35.25
2019-02-05T17:28:43.454Z,34.72
2019-02-05T17:31:11.059Z,37.65
2019-02-05T17:33:39.327Z,35.83
2019-02-05T17:36:08.210Z,35.60
2019-02-05T17:38:36.049Z,38.80
2019-02-05T17:41:04.501Z,31.15
2019-02-05T17:43:32.729Z,31.58
2019-02-05T17:46:00.920Z,30.73
2019-02-05T17:48:29.152Z,30.73
2019-02-05T17:50:57.325Z,33.45
2019-02-05T17:53:25.126Z,33.78
2019-02-05T17:55:52.712Z,30.98
2019-02-05T17:58:20.929Z,34.42
2019-02-05T18:00:51.069Z,36.17
2019-02-05T18:03:19.637Z,36.17
2019-02-05T18:05:47.863Z,39.95
2019-02-05T18:08:16.105Z,32.75
2019-02-05T18:10:44.336Z,35.83
2019-02-05T18:13:12.189Z,40.35
2019-02-05T18:15:41.279Z,38.05
2019-02-05T18:18:09.481Z,29.80
2019-02-05T18:20:37.587Z,33.03
2019-02-05T18:23:05.770Z,33.28
2019-02-05T18:25:34.306Z,32.95
2019-02-05T18:28:02.403Z,25.58
2019-02-05T18:30:31.214Z,26.48
2019-02-05T18:33:03.863Z,25.90
2019-02-05T18:35:27.645Z,25.95
2019-02-05T18:37:56.362Z,27.80
2019-02-05T18:40:24.755Z,31.67
2019-02-05T18:42:52.648Z,24.92
2019-02-05T18:45:20.906Z,24.95
2019-02-05T18:47:50.004Z,23.92
2019-02-05T18:50:19.377Z,26.90
2019-02-05T18:52:47.215Z,25.77
2019-02-05T18:55:15.590Z,27.42
2019-02-05T18:57:43.787Z,26.35
2019-02-05T19:00:13.680Z,28.95
2019-02-05T19:02:42.237Z,25.77
2019-02-05T19:05:11.025Z,30.15
2019-02-05T19:07:39.181Z,33.50
2019-02-05T19:10:08.755Z,28.08
2019-02-05T19:12:37.585Z,28.98
2019-02-05T19:15:06.706Z,29.63
2019-02-05T19:17:34.916Z,26.73
2019-02-05T19:20:02.808Z,29.48
2019-02-05T19:22:30.925Z,29.42
2019-02-05T19:25:07.682Z,30.58
2019-02-05T19:27:35.960Z,29.77
2019-02-05T19:30:04.163Z,31.40
2019-02-05T19:32:32.707Z,30.98
2019-02-05T19:35:00.843Z,36.42
2019-02-05T19:37:29.028Z,35.08
2019-02-05T19:40:00.297Z,33.00
2019-02-05T19:42:28.166Z,37.25
2019-02-05T19:45:15.383Z,34.63
2019-02-05T19:47:43.568Z,35.90
2019-02-05T19:50:11.346Z,33.22
2019-02-05T19:52:39.391Z,36.67
2019-02-05T19:55:07.587Z,37.55
2019-02-05T19:57:35.583Z,37.22
2019-02-05T20:00:04.053Z,40.00
2019-02-05T20:02:31.878Z,36.80
2019-02-05T20:04:59.977Z,35.90
2019-02-05T20:07:28.424Z,37.50
2019-02-05T20:09:56.292Z,37.05
2019-02-05T20:12:24.405Z,38.42
2019-02-05T20:14:52.576Z,33.78
2019-02-05T20:17:20.759Z,38.63
2019-02-05T20:19:48.992Z,37.50
2019-02-05T20:22:17.151Z,38.70
2019-02-05T20:24:45.273Z,35.63
2019-02-05T20:27:13.197Z,34.92
2019-02-05T20:29:41.580Z,34.42
2019-02-05T20:32:09.407Z,34.38
2019-02-05T20:34:38.063Z,32.58
2019-02-05T20:37:06.268Z,31.95
2019-02-05T20:39:34.510Z,34.25
2019-02-05T20:42:02.730Z,37.63
2019-02-05T20:44:30.960Z,33.05
2019-02-05T20:46:59.127Z,32.63
2019-02-05T20:49:27.378Z,34.17
2019-02-05T20:51:55.996Z,34.60
2019-02-05T20:54:23.545Z,34.60
2019-02-05T20:56:51.778Z,33.22
2019-02-05T20:59:19.931Z,28.15
2019-02-05T21:01:48.171Z,28.35
2019-02-05T21:04:16.036Z,31.60
2019-02-05T21:06:44.411Z,34.45
2019-02-05T21:09:21.830Z,31.55
2019-02-05T21:11:50.310Z,34.88
2019-02-05T21:14:18.248Z,30.35
2019-02-05T21:16:46.552Z,28.98
2019-02-05T21:19:15.159Z,37.75
2019-02-05T21:21:43.276Z,31.90
2019-02-05T21:24:11.174Z,30.05
2019-02-05T21:26:39.907Z,30.90
2019-02-05T21:29:07.875Z,28.98
2019-02-05T21:31:36.026Z,28.33
2019-02-05T21:34:14.834Z,34.75
2019-02-05T21:36:32.445Z,29.92
2019-02-05T21:39:00.371Z,30.20
2019-02-05T21:41:28.913Z,31.35
2019-02-05T21:43:57.462Z,33.70
2019-02-05T21:46:25.689Z,28.77
2019-02-05T21:48:54.335Z,29.17
2019-02-05T21:51:22.515Z,26.40
2019-02-05T21:53:50.666Z,25.40
2019-02-05T21:56:18.849Z,31.65
2019-02-05T21:58:47.120Z,29.15
2019-02-05T22:01:15.101Z,26.37
2019-02-05T22:03:42.939Z,20.92
2019-02-05T22:06:10.782Z,26.10
2019-02-05T22:08:39.075Z,30.92
2019-02-05T22:11:06.951Z,25.47
2019-02-05T22:13:35.160Z,29.37
2019-02-05T22:16:03.070Z,30.27
2019-02-05T22:18:31.216Z,27.62
2019-02-05T22:20:59.477Z,29.10
2019-02-05T22:23:27.619Z,21.30
2019-02-05T22:25:55.456Z,34.07
2019-02-05T22:28:24.137Z,30.33
2019-02-05T22:30:52.230Z,28.00
2019-02-05T22:33:20.830Z,28.35
2019-02-05T22:35:49.009Z,30.73
2019-02-05T22:38:17.183Z,25.70
2019-02-05T22:40:45.074Z,27.95
2019-02-05T22:43:12.275Z,26.05
2019-02-05T22:45:41.374Z,27.13
2019-02-05T22:48:09.608Z,24.43
2019-02-05T22:50:37.745Z,24.00
2019-02-05T22:53:05.992Z,18.90
2019-02-05T22:55:34.387Z,21.42
2019-02-05T22:58:02.410Z,23.40
2019-02-05T23:00:40.126Z,25.10
2019-02-05T23:03:08.243Z,23.65
2019-02-05T23:05:41.519Z,21.60
2019-02-05T23:08:09.695Z,23.97
2019-02-05T23:11:03.337Z,17.53
2019-02-05T23:13:29.069Z,22.10
2019-02-05T23:15:56.984Z,20.33
2019-02-05T23:18:25.012Z,20.07
2019-02-05T23:20:53.960Z,19.43
2019-02-05T23:23:21.024Z,20.63
2019-02-05T23:25:49.077Z,13.80
2019-02-05T23:28:17.647Z,15.53
2019-02-05T23:30:45.426Z,15.07
2019-02-05T23:33:13.497Z,18.17
2019-02-05T23:35:42.583Z,16.77
2019-02-05T23:38:10.665Z,16.62
2019-02-05T23:40:38.527Z,13.80
2019-02-05T23:43:06.297Z,18.48
2019-02-05T23:45:34.330Z,15.80
2019-02-05T23:48:02.628Z,22.17
2019-02-05T23:50:30.705Z,22.30
2019-02-05T23:52:58.754Z,18.52
2019-02-05T23:55:26.542Z,17.12
2019-02-05T23:57:54.884Z,18.98
